createdAt,value
2022-08-18T00:01:40.840Z,26.17
2022-08-18T00:05:45.622Z,26.19
2022-08-18T00:09:51.068Z,26.22
2022-08-18T00:13:54.760Z,26.23
2022-08-18T00:17:57.798Z,26.25
2022-08-18T00:22:01.619Z,26.27
2022-08-18T00:26:06.885Z,26.25
2022-08-18T00:30:13.438Z,26.24
2022-08-18T00:34:17.039Z,26.19
2022-08-18T00:38:24.897Z,26.14
2022-08-18T00:42:31.963Z,26.08
2022-08-18T00:46:39.703Z,26.01
2022-08-18T00:50:48.530Z,25.95
2022-08-18T00:54:56.006Z,25.87
2022-08-18T00:59:04.402Z,25.80
2022-08-18T01:03:14.426Z,25.75
2022-08-18T01:07:22.292Z,25.67
2022-08-18T01:11:26.141Z,25.61
2022-08-18T01:15:30.853Z,25.57
2022-08-18T01:19:52.438Z,25.53
2022-08-18T01:23:59.145Z,25.50
2022-08-18T01:28:03.526Z,25.46
2022-08-18T01:32:07.568Z,25.41
2022-08-18T01:36:17.092Z,25.35
2022-08-18T01:41:11.076Z,25.29
2022-08-18T01:44:51.384Z,25.21
2022-08-18T01:48:55.343Z,25.12
2022-08-18T01:52:59.132Z,25.01
2022-08-18T01:57:03.991Z,24.92
2022-08-18T02:01:08.093Z,24.81
2022-08-18T02:05:15.660Z,24.71
2022-08-18T02:09:23.706Z,24.60
2022-08-18T02:13:29.889Z,24.47
2022-08-18T02:17:39.294Z,24.33
2022-08-18T02:21:42.434Z,24.18
2022-08-18T02:25:46.130Z,24.08
2022-08-18T02:29:51.244Z,24.02
2022-08-18T02:33:54.903Z,23.93
2022-08-18T02:38:00.200Z,23.84
2022-08-18T02:42:03.770Z,23.72
2022-08-18T02:46:11.140Z,23.61
2022-08-18T02:50:16.909Z,23.55
2022-08-18T02:54:21.227Z,23.48
2022-08-18T02:58:24.850Z,23.40
2022-08-18T03:02:29.892Z,23.37
2022-08-18T03:06:33.140Z,23.35
2022-08-18T03:10:36.783Z,23.34
2022-08-18T03:14:41.767Z,23.34
2022-08-18T03:18:48.512Z,23.38
2022-08-18T03:22:51.737Z,23.43
2022-08-18T03:26:58.756Z,23.53
2022-08-18T03:31:02.275Z,23.61
2022-08-18T03:35:08.828Z,23.71
2022-08-18T03:39:14.785Z,23.78
2022-08-18T03:43:23.691Z,23.84
2022-08-18T03:47:42.678Z,23.90
2022-08-18T03:51:49.300Z,23.95
2022-08-18T03:55:52.633Z,23.96
2022-08-18T03:59:56.834Z,23.97
2022-08-18T04:04:04.640Z,23.94
2022-08-18T04:08:09.655Z,23.95
2022-08-18T04:12:17.653Z,23.94
2022-08-18T04:16:21.296Z,23.90
2022-08-18T04:20:25.050Z,23.91
2022-08-18T04:24:31.991Z,23.92
2022-08-18T04:28:37.261Z,23.90
2022-08-18T04:32:40.876Z,23.91
2022-08-18T04:36:45.415Z,23.89
2022-08-18T04:40:50.824Z,23.92
2022-08-18T04:44:54.633Z,23.91
2022-08-18T04:48:59.893Z,23.92
2022-08-18T04:53:23.221Z,23.91
2022-08-18T04:57:32.973Z,23.91
2022-08-18T05:01:41.352Z,23.91
2022-08-18T05:05:45.171Z,23.89
2022-08-18T05:09:49.022Z,23.91
2022-08-18T05:13:55.876Z,23.93
2022-08-18T05:17:59.736Z,23.94
2022-08-18T05:22:05.175Z,24.02
2022-08-18T05:26:10.707Z,24.06
2022-08-18T05:30:16.139Z,24.13
2022-08-18T05:34:21.870Z,24.21
2022-08-18T05:38:39.998Z,24.27
2022-08-18T05:42:44.992Z,24.32
2022-08-18T05:46:53.521Z,24.39
2022-08-18T05:51:01.541Z,24.47
2022-08-18T05:55:26.825Z,24.53
2022-08-18T05:59:35.188Z,24.61
2022-08-18T06:03:54.061Z,24.74
2022-08-18T06:08:02.008Z,24.83
2022-08-18T06:12:14.781Z,24.97
2022-08-18T06:16:30.123Z,25.10
2022-08-18T06:20:45.211Z,25.28
2022-08-18T06:24:57.618Z,25.39
2022-08-18T06:29:13.112Z,25.50
2022-08-18T06:33:40.694Z,25.59
2022-08-18T06:38:11.199Z,25.72
2022-08-18T06:42:17.599Z,25.82
2022-08-18T06:46:28.394Z,25.99
2022-08-18T06:50:35.794Z,26.23
2022-08-18T06:54:49.396Z,26.49
2022-08-18T06:58:56.027Z,26.73
2022-08-18T07:03:07.519Z,27.02
2022-08-18T07:07:20.702Z,27.38
2022-08-18T07:11:28.398Z,27.77
2022-08-18T07:15:32.955Z,28.12
2022-08-18T07:19:36.690Z,28.44
2022-08-18T07:23:41.922Z,28.73
2022-08-18T07:27:49.288Z,29.00
2022-08-18T07:31:56.298Z,29.26
2022-08-18T07:36:07.222Z,29.61
2022-08-18T07:40:22.290Z,30.03
2022-08-18T07:44:32.157Z,30.36
2022-08-18T07:48:39.938Z,30.54
2022-08-18T07:52:52.667Z,30.71
2022-08-18T07:57:06.176Z,30.92
2022-08-18T08:01:29.263Z,31.09
2022-08-18T08:05:50.249Z,31.22
2022-08-18T08:10:03.324Z,31.28
2022-08-18T08:14:21.737Z,31.39
2022-08-18T08:18:36.045Z,31.59
2022-08-18T08:22:45.745Z,31.65
2022-08-18T08:26:58.590Z,31.69
2022-08-18T08:31:35.217Z,31.75
2022-08-18T08:35:50.872Z,31.87
2022-08-18T08:40:01.022Z,32.10
2022-08-18T08:44:12.302Z,32.40
2022-08-18T08:48:22.739Z,32.86
2022-08-18T08:52:33.438Z,33.28
2022-08-18T08:56:42.873Z,33.67
2022-08-18T09:00:49.616Z,34.01
2022-08-18T09:05:08.980Z,34.32
2022-08-18T09:09:29.712Z,34.55
2022-08-18T09:14:14.489Z,34.77
2022-08-18T09:18:38.332Z,34.97
2022-08-18T09:22:49.809Z,35.16
2022-08-18T09:27:15.361Z,35.24
2022-08-18T09:31:21.051Z,35.31
2022-08-18T09:36:00.153Z,35.40
2022-08-18T09:41:00.999Z,35.55
2022-08-18T09:45:10.539Z,35.79
2022-08-18T09:49:51.366Z,36.04
2022-08-18T09:54:21.397Z,36.29
2022-08-18T09:58:57.629Z,36.62
2022-08-18T10:03:25.731Z,36.87
2022-08-18T10:08:07.127Z,37.03
2022-08-18T10:12:27.519Z,37.22
2022-08-18T10:21:14.851Z,37.57
2022-08-18T10:25:35.475Z,37.62
2022-08-18T10:29:54.596Z,37.72
2022-08-18T10:34:16.007Z,37.80
2022-08-18T10:43:46.294Z,37.89
2022-08-18T10:47:34.152Z,37.86
2022-08-18T10:51:59.436Z,37.90
2022-08-18T10:56:12.627Z,37.96
2022-08-18T11:00:21.670Z,37.96
2022-08-18T11:04:39.350Z,37.91
2022-08-18T11:08:48.347Z,37.92
2022-08-18T11:13:11.038Z,37.96
2022-08-18T11:17:24.496Z,37.99
2022-08-18T11:26:18.299Z,38.17
2022-08-18T11:30:31.106Z,38.20
2022-08-18T11:34:41.290Z,38.29
2022-08-18T11:38:56.402Z,38.41
2022-08-18T11:43:06.608Z,38.59
2022-08-18T11:47:17.095Z,38.83
2022-08-18T11:51:26.986Z,39.03
2022-08-18T11:55:33.930Z,39.17
2022-08-18T11:59:54.997Z,39.26
2022-08-18T12:04:15.648Z,39.26
2022-08-18T12:08:51.007Z,39.16
2022-08-18T12:12:52.897Z,38.99
2022-08-18T12:16:59.724Z,38.87
2022-08-18T12:21:06.943Z,38.91
2022-08-18T12:25:13.159Z,38.97
2022-08-18T12:29:19.065Z,39.00
2022-08-18T12:33:25.372Z,38.95
2022-08-18T12:42:08.739Z,38.37
2022-08-18T12:46:14.028Z,38.12
2022-08-18T12:50:19.005Z,38.03
2022-08-18T12:54:25.386Z,38.09
2022-08-18T12:58:30.184Z,38.26
2022-08-18T13:02:33.786Z,38.48
2022-08-18T13:06:54.222Z,38.74
2022-08-18T13:11:15.123Z,39.03
2022-08-18T13:15:26.183Z,39.28
2022-08-18T13:19:35.237Z,39.43
2022-08-18T13:23:40.762Z,39.49
2022-08-18T13:27:46.592Z,39.57
2022-08-18T13:31:58.008Z,39.63
2022-08-18T13:36:02.375Z,39.72
2022-08-18T13:40:07.167Z,39.77
2022-08-18T13:44:18.956Z,39.75
2022-08-18T13:48:30.179Z,39.65
2022-08-18T13:52:35.569Z,39.46
2022-08-18T13:56:42.810Z,39.17
2022-08-18T14:01:15.922Z,38.86
2022-08-18T14:05:50.735Z,38.57
2022-08-18T14:09:46.378Z,38.36
2022-08-18T14:13:50.788Z,38.13
2022-08-18T14:17:56.534Z,37.93
2022-08-18T14:22:19.886Z,37.68
2022-08-18T14:26:40.560Z,37.33
2022-08-18T14:30:54.136Z,36.87
2022-08-18T14:35:34.281Z,36.38
2022-08-18T14:39:28.053Z,35.68
2022-08-18T14:44:12.525Z,34.91
2022-08-18T14:47:55.660Z,33.63
2022-08-18T14:52:05.074Z,32.70
2022-08-18T14:56:16.043Z,31.56
2022-08-18T15:00:53.704Z,30.14
2022-08-18T15:04:58.106Z,28.68
2022-08-18T15:09:03.015Z,27.38
2022-08-18T15:13:06.796Z,26.45
2022-08-18T15:17:13.213Z,25.96
2022-08-18T15:21:38.777Z,25.61
2022-08-18T15:25:46.506Z,25.45
2022-08-18T15:29:54.745Z,25.37
2022-08-18T15:33:58.641Z,25.37
2022-08-18T15:38:04.971Z,25.42
2022-08-18T15:42:13.831Z,25.48
2022-08-18T15:46:17.057Z,25.55
2022-08-18T15:50:25.332Z,25.62
2022-08-18T15:54:28.907Z,25.77
2022-08-18T15:58:34.489Z,25.92
2022-08-18T16:02:39.043Z,26.19
2022-08-18T16:06:45.330Z,26.59
2022-08-18T16:10:49.120Z,27.10
2022-08-18T16:14:53.739Z,27.59
2022-08-18T16:18:57.725Z,27.95
2022-08-18T16:23:01.290Z,28.18
2022-08-18T16:27:06.706Z,28.31
2022-08-18T16:31:11.582Z,28.40
2022-08-18T16:35:15.856Z,28.44
2022-08-18T16:39:20.304Z,28.49
2022-08-18T16:43:23.642Z,28.52
2022-08-18T16:47:29.207Z,28.55
2022-08-18T16:51:32.554Z,28.57
2022-08-18T16:55:35.848Z,28.49
2022-08-18T16:59:57.472Z,28.39
2022-08-18T17:04:13.799Z,28.17
2022-08-18T17:08:25.409Z,28.00
2022-08-18T17:12:29.711Z,27.85
2022-08-18T17:16:32.993Z,27.74
2022-08-18T17:20:38.032Z,27.67
2022-08-18T17:24:49.363Z,27.57
2022-08-18T17:28:59.744Z,27.47
2022-08-18T17:33:06.735Z,27.35
2022-08-18T17:37:15.538Z,27.17
2022-08-18T17:41:20.795Z,26.99
2022-08-18T17:45:24.089Z,26.78
2022-08-18T17:49:54.207Z,26.56
2022-08-18T17:54:24.606Z,26.29
2022-08-18T17:58:34.144Z,26.06
2022-08-18T18:02:37.569Z,25.81
2022-08-18T18:06:45.357Z,25.59
2022-08-18T18:11:07.869Z,25.34
2022-08-18T18:15:13.646Z,25.12
2022-08-18T18:19:21.982Z,24.90
2022-08-18T18:23:30.168Z,24.70
2022-08-18T18:27:40.802Z,24.50
2022-08-18T18:31:46.925Z,24.32
2022-08-18T18:35:53.997Z,24.16
2022-08-18T18:40:00.607Z,24.02
2022-08-18T18:44:10.513Z,23.90
2022-08-18T18:48:38.643Z,23.77
2022-08-18T18:52:58.749Z,23.66
2022-08-18T18:57:03.802Z,23.54
2022-08-18T19:01:19.451Z,23.44
2022-08-18T19:05:31.006Z,23.33
2022-08-18T19:09:43.748Z,23.23
2022-08-18T19:13:56.957Z,23.14
2022-08-18T19:18:05.079Z,23.07
2022-08-18T19:22:14.113Z,23.00
2022-08-18T19:26:27.563Z,22.96
2022-08-18T19:30:34.697Z,22.90
2022-08-18T19:34:51.122Z,22.83
2022-08-18T19:39:03.733Z,22.77
2022-08-18T19:43:15.818Z,22.67
2022-08-18T19:47:28.262Z,22.56
2022-08-18T19:51:35.358Z,22.47
2022-08-18T19:55:56.318Z,22.34
2022-08-18T20:00:18.479Z,22.17
2022-08-18T20:04:36.191Z,22.05
2022-08-18T20:09:10.594Z,21.90
2022-08-18T20:13:33.213Z,21.78
2022-08-18T20:18:06.346Z,21.70
2022-08-18T20:22:15.878Z,21.65
2022-08-18T20:26:44.020Z,21.55
2022-08-18T20:31:02.734Z,21.46
2022-08-18T20:39:54.642Z,21.30
2022-08-18T20:44:06.163Z,21.27
2022-08-18T20:48:27.854Z,21.24
2022-08-18T20:52:43.233Z,21.20
2022-08-18T20:56:50.798Z,21.16
2022-08-18T21:00:58.936Z,21.13
2022-08-18T21:05:02.263Z,21.09
2022-08-18T21:09:06.008Z,21.07
2022-08-18T21:13:09.175Z,21.05
2022-08-18T21:17:16.708Z,21.05
2022-08-18T21:21:26.908Z,21.05
2022-08-18T21:25:32.698Z,21.06
2022-08-18T21:29:47.609Z,21.07
2022-08-18T21:33:56.777Z,21.07
2022-08-18T21:38:02.062Z,21.04
2022-08-18T21:42:05.773Z,21.02
2022-08-18T21:46:10.506Z,20.93
2022-08-18T21:50:23.287Z,20.86
2022-08-18T21:54:31.224Z,20.85
2022-08-18T21:58:41.255Z,20.83
2022-08-18T22:02:44.741Z,20.82
2022-08-18T22:06:53.406Z,20.81
2022-08-18T22:12:01.014Z,20.83
2022-08-18T22:16:24.804Z,20.84
2022-08-18T22:20:47.146Z,20.86
2022-08-18T22:24:56.060Z,20.90
2022-08-18T22:29:03.454Z,20.91
2022-08-18T22:33:06.837Z,20.96
2022-08-18T22:37:16.198Z,21.02
2022-08-18T22:41:26.115Z,21.07
2022-08-18T22:45:30.130Z,21.14
2022-08-18T22:49:56.164Z,21.26
2022-08-18T22:53:59.499Z,21.34
2022-08-18T22:58:04.856Z,21.41
2022-08-18T23:02:11.404Z,21.49
2022-08-18T23:06:16.127Z,21.57
2022-08-18T23:10:20.208Z,21.58
2022-08-18T23:14:25.700Z,21.67
2022-08-18T23:18:29.556Z,21.72
2022-08-18T23:22:33.676Z,21.75
2022-08-18T23:26:37.531Z,21.77
2022-08-18T23:30:44.683Z,21.79
2022-08-18T23:34:48.643Z,21.80
2022-08-18T23:38:55.571Z,21.82
2022-08-18T23:42:59.072Z,21.85
2022-08-18T23:47:04.299Z,21.85
2022-08-18T23:51:08.781Z,21.86
2022-08-18T23:55:14.886Z,21.85
2022-08-18T23:59:20.492Z,21.83
